sensor_id;sensor_type;location;lat;lon;timestamp;P1;durP1;ratioP1;P2;durP2;ratioP2
31262;SDS011;17892;52.080;9.006;2024-02-23T00:02:18;1.63;;;0.38;;
31262;SDS011;17892;52.080;9.006;2024-02-23T00:04:44;1.83;;;0.60;;
31262;SDS011;17892;52.080;9.006;2024-02-23T00:07:11;1.38;;;0.40;;
31262;SDS011;17892;52.080;9.006;2024-02-23T00:09:37;2.63;;;0.40;;
31262;SDS011;17892;52.080;9.006;2024-02-23T00:12:03;2.42;;;0.40;;
31262;SDS011;17892;52.080;9.006;2024-02-23T00:14:29;1.63;;;0.50;;
31262;SDS011;17892;52.080;9.006;2024-02-23T00:16:56;1.63;;;0.40;;
31262;SDS011;17892;52.080;9.006;2024-02-23T00:19:22;2.35;;;0.50;;
31262;SDS011;17892;52.080;9.006;2024-02-23T00:21:49;1.00;;;0.40;;
31262;SDS011;17892;52.080;9.006;2024-02-23T00:24:15;2.17;;;0.50;;
31262;SDS011;17892;52.080;9.006;2024-02-23T00:26:42;2.40;;;0.32;;
31262;SDS011;17892;52.080;9.006;2024-02-23T00:29:08;1.77;;;0.40;;
31262;SDS011;17892;52.080;9.006;2024-02-23T00:31:34;1.27;;;0.55;;
31262;SDS011;17892;52.080;9.006;2024-02-23T00:34:03;1.67;;;0.40;;
31262;SDS011;17892;52.080;9.006;2024-02-23T00:36:28;2.95;;;0.50;;
31262;SDS011;17892;52.080;9.006;2024-02-23T00:38:54;1.83;;;0.40;;
31262;SDS011;17892;52.080;9.006;2024-02-23T00:41:20;0.95;;;0.30;;
31262;SDS011;17892;52.080;9.006;2024-02-23T00:43:45;1.25;;;0.20;;
31262;SDS011;17892;52.080;9.006;2024-02-23T00:46:12;1.00;;;0.30;;
31262;SDS011;17892;52.080;9.006;2024-02-23T00:48:39;0.93;;;0.17;;
31262;SDS011;17892;52.080;9.006;2024-02-23T00:51:05;1.15;;;0.35;;
31262;SDS011;17892;52.080;9.006;2024-02-23T00:53:32;1.13;;;0.30;;
31262;SDS011;17892;52.080;9.006;2024-02-23T00:55:58;0.40;;;0.20;;
31262;SDS011;17892;52.080;9.006;2024-02-23T00:58:24;1.45;;;0.38;;
31262;SDS011;17892;52.080;9.006;2024-02-23T01:00:49;1.40;;;0.32;;
31262;SDS011;17892;52.080;9.006;2024-02-23T01:03:15;0.47;;;0.30;;
31262;SDS011;17892;52.080;9.006;2024-02-23T01:05:40;0.90;;;0.30;;
31262;SDS011;17892;52.080;9.006;2024-02-23T01:08:07;0.70;;;0.38;;
31262;SDS011;17892;52.080;9.006;2024-02-23T01:10:34;0.90;;;0.47;;
31262;SDS011;17892;52.080;9.006;2024-02-23T01:13:00;1.00;;;0.40;;
31262;SDS011;17892;52.080;9.006;2024-02-23T01:15:26;1.05;;;0.50;;
31262;SDS011;17892;52.080;9.006;2024-02-23T01:17:51;1.25;;;0.43;;
31262;SDS011;17892;52.080;9.006;2024-02-23T01:20:17;0.50;;;0.30;;
31262;SDS011;17892;52.080;9.006;2024-02-23T01:22:43;0.60;;;0.30;;
31262;SDS011;17892;52.080;9.006;2024-02-23T01:25:08;0.30;;;0.20;;
31262;SDS011;17892;52.080;9.006;2024-02-23T01:27:34;0.47;;;0.20;;
31262;SDS011;17892;52.080;9.006;2024-02-23T01:30:00;0.63;;;0.20;;
31262;SDS011;17892;52.080;9.006;2024-02-23T01:32:25;0.57;;;0.20;;
31262;SDS011;17892;52.080;9.006;2024-02-23T01:34:51;0.40;;;0.20;;
31262;SDS011;17892;52.080;9.006;2024-02-23T01:37:17;0.63;;;0.20;;
31262;SDS011;17892;52.080;9.006;2024-02-23T01:39:43;0.55;;;0.20;;
31262;SDS011;17892;52.080;9.006;2024-02-23T01:42:08;0.30;;;0.20;;
31262;SDS011;17892;52.080;9.006;2024-02-23T01:44:34;0.47;;;0.20;;
31262;SDS011;17892;52.080;9.006;2024-02-23T01:47:00;0.30;;;0.20;;
31262;SDS011;17892;52.080;9.006;2024-02-23T01:49:26;0.20;;;0.10;;
31262;SDS011;17892;52.080;9.006;2024-02-23T01:51:57;0.30;;;0.10;;
31262;SDS011;17892;52.080;9.006;2024-02-23T01:54:22;0.77;;;0.30;;
31262;SDS011;17892;52.080;9.006;2024-02-23T01:56:49;0.90;;;0.40;;
31262;SDS011;17892;52.080;9.006;2024-02-23T01:59:16;0.55;;;0.30;;
31262;SDS011;17892;52.080;9.006;2024-02-23T02:01:42;0.50;;;0.22;;
31262;SDS011;17892;52.080;9.006;2024-02-23T02:04:09;1.05;;;0.40;;
31262;SDS011;17892;52.080;9.006;2024-02-23T02:06:35;0.45;;;0.20;;
31262;SDS011;17892;52.080;9.006;2024-02-23T02:09:01;0.50;;;0.30;;
31262;SDS011;17892;52.080;9.006;2024-02-23T02:15:08;1.17;;;0.35;;
31262;SDS011;17892;52.080;9.006;2024-02-23T02:17:34;1.60;;;0.35;;
31262;SDS011;17892;52.080;9.006;2024-02-23T02:20:00;2.17;;;0.52;;
31262;SDS011;17892;52.080;9.006;2024-02-23T02:22:34;1.30;;;0.50;;
31262;SDS011;17892;52.080;9.006;2024-02-23T02:25:00;2.45;;;0.50;;
31262;SDS011;17892;52.080;9.006;2024-02-23T02:27:25;1.98;;;0.63;;
31262;SDS011;17892;52.080;9.006;2024-02-23T02:29:51;1.63;;;0.52;;
31262;SDS011;17892;52.080;9.006;2024-02-23T02:32:17;1.42;;;0.40;;
31262;SDS011;17892;52.080;9.006;2024-02-23T02:34:43;1.92;;;0.63;;
31262;SDS011;17892;52.080;9.006;2024-02-23T02:37:08;1.77;;;0.60;;
31262;SDS011;17892;52.080;9.006;2024-02-23T02:39:34;1.58;;;0.52;;
31262;SDS011;17892;52.080;9.006;2024-02-23T02:42:01;1.60;;;0.50;;
31262;SDS011;17892;52.080;9.006;2024-02-23T02:44:27;1.88;;;0.50;;
31262;SDS011;17892;52.080;9.006;2024-02-23T02:46:55;0.95;;;0.40;;
31262;SDS011;17892;52.080;9.006;2024-02-23T02:49:22;2.53;;;0.52;;
31262;SDS011;17892;52.080;9.006;2024-02-23T02:51:47;2.63;;;1.00;;
31262;SDS011;17892;52.080;9.006;2024-02-23T02:54:13;2.20;;;0.90;;
31262;SDS011;17892;52.080;9.006;2024-02-23T02:56:46;1.90;;;0.70;;
31262;SDS011;17892;52.080;9.006;2024-02-23T02:59:12;2.20;;;0.82;;
31262;SDS011;17892;52.080;9.006;2024-02-23T03:01:39;2.70;;;1.05;;
31262;SDS011;17892;52.080;9.006;2024-02-23T03:04:04;1.80;;;0.80;;
31262;SDS011;17892;52.080;9.006;2024-02-23T03:06:30;2.40;;;1.10;;
31262;SDS011;17892;52.080;9.006;2024-02-23T03:08:56;2.00;;;0.90;;
31262;SDS011;17892;52.080;9.006;2024-02-23T03:11:21;2.00;;;0.88;;
31262;SDS011;17892;52.080;9.006;2024-02-23T03:13:47;2.20;;;1.10;;
31262;SDS011;17892;52.080;9.006;2024-02-23T03:16:16;2.25;;;1.00;;
31262;SDS011;17892;52.080;9.006;2024-02-23T03:18:43;3.22;;;1.02;;
31262;SDS011;17892;52.080;9.006;2024-02-23T03:21:09;1.95;;;1.00;;
31262;SDS011;17892;52.080;9.006;2024-02-23T03:23:35;2.08;;;0.90;;
31262;SDS011;17892;52.080;9.006;2024-02-23T03:26:01;2.03;;;0.98;;
31262;SDS011;17892;52.080;9.006;2024-02-23T03:28:27;3.33;;;1.40;;
31262;SDS011;17892;52.080;9.006;2024-02-23T03:30:53;2.10;;;1.00;;
31262;SDS011;17892;52.080;9.006;2024-02-23T03:33:19;3.45;;;1.50;;
31262;SDS011;17892;52.080;9.006;2024-02-23T03:35:44;3.83;;;1.23;;
31262;SDS011;17892;52.080;9.006;2024-02-23T03:38:10;3.47;;;1.20;;
31262;SDS011;17892;52.080;9.006;2024-02-23T03:40:36;2.22;;;0.90;;
31262;SDS011;17892;52.080;9.006;2024-02-23T03:43:02;3.03;;;0.95;;
31262;SDS011;17892;52.080;9.006;2024-02-23T03:45:28;3.70;;;1.20;;
31262;SDS011;17892;52.080;9.006;2024-02-23T03:47:54;2.40;;;0.80;;
31262;SDS011;17892;52.080;9.006;2024-02-23T03:50:20;3.50;;;0.70;;
31262;SDS011;17892;52.080;9.006;2024-02-23T03:52:45;2.03;;;0.88;;
31262;SDS011;17892;52.080;9.006;2024-02-23T03:55:11;2.17;;;0.65;;
31262;SDS011;17892;52.080;9.006;2024-02-23T03:57:37;4.80;;;1.05;;
31262;SDS011;17892;52.080;9.006;2024-02-23T04:00:03;1.50;;;0.68;;
31262;SDS011;17892;52.080;9.006;2024-02-23T04:02:31;1.38;;;0.63;;
31262;SDS011;17892;52.080;9.006;2024-02-23T04:04:56;2.13;;;0.85;;
31262;SDS011;17892;52.080;9.006;2024-02-23T04:07:22;2.15;;;0.80;;
31262;SDS011;17892;52.080;9.006;2024-02-23T04:09:48;1.90;;;0.80;;
31262;SDS011;17892;52.080;9.006;2024-02-23T04:12:17;2.15;;;0.85;;
31262;SDS011;17892;52.080;9.006;2024-02-23T04:14:44;4.78;;;1.17;;
31262;SDS011;17892;52.080;9.006;2024-02-23T04:17:10;2.88;;;0.73;;
31262;SDS011;17892;52.080;9.006;2024-02-23T04:19:37;2.20;;;0.60;;
31262;SDS011;17892;52.080;9.006;2024-02-23T04:22:02;1.90;;;0.80;;
31262;SDS011;17892;52.080;9.006;2024-02-23T04:24:30;1.45;;;0.70;;
31262;SDS011;17892;52.080;9.006;2024-02-23T04:26:56;2.55;;;0.70;;
31262;SDS011;17892;52.080;9.006;2024-02-23T04:29:22;2.70;;;0.70;;
31262;SDS011;17892;52.080;9.006;2024-02-23T04:31:47;2.13;;;0.60;;
31262;SDS011;17892;52.080;9.006;2024-02-23T04:34:14;2.20;;;0.63;;
31262;SDS011;17892;52.080;9.006;2024-02-23T04:36:41;3.42;;;0.90;;
31262;SDS011;17892;52.080;9.006;2024-02-23T04:39:07;2.08;;;0.63;;
31262;SDS011;17892;52.080;9.006;2024-02-23T04:41:33;1.75;;;0.50;;
31262;SDS011;17892;52.080;9.006;2024-02-23T04:43:58;2.20;;;0.68;;
31262;SDS011;17892;52.080;9.006;2024-02-23T04:46:26;3.70;;;0.93;;
31262;SDS011;17892;52.080;9.006;2024-02-23T04:48:52;3.05;;;0.60;;
31262;SDS011;17892;52.080;9.006;2024-02-23T04:51:17;1.05;;;0.40;;
31262;SDS011;17892;52.080;9.006;2024-02-23T04:53:44;3.15;;;0.40;;
31262;SDS011;17892;52.080;9.006;2024-02-23T04:56:09;2.45;;;0.55;;
31262;SDS011;17892;52.080;9.006;2024-02-23T04:58:35;2.25;;;0.57;;
31262;SDS011;17892;52.080;9.006;2024-02-23T05:01:02;3.45;;;0.70;;
31262;SDS011;17892;52.080;9.006;2024-02-23T05:03:28;1.80;;;0.50;;
31262;SDS011;17892;52.080;9.006;2024-02-23T05:05:54;3.92;;;0.70;;
31262;SDS011;17892;52.080;9.006;2024-02-23T05:08:21;1.30;;;0.50;;
31262;SDS011;17892;52.080;9.006;2024-02-23T05:10:49;2.65;;;0.60;;
31262;SDS011;17892;52.080;9.006;2024-02-23T05:13:15;2.53;;;0.60;;
31262;SDS011;17892;52.080;9.006;2024-02-23T05:15:41;3.30;;;0.68;;
31262;SDS011;17892;52.080;9.006;2024-02-23T05:18:07;1.92;;;0.63;;
31262;SDS011;17892;52.080;9.006;2024-02-23T05:20:33;2.00;;;0.70;;
31262;SDS011;17892;52.080;9.006;2024-02-23T05:22:59;2.88;;;0.88;;
31262;SDS011;17892;52.080;9.006;2024-02-23T05:25:24;2.35;;;0.65;;
31262;SDS011;17892;52.080;9.006;2024-02-23T05:27:52;2.30;;;0.80;;
31262;SDS011;17892;52.080;9.006;2024-02-23T05:30:18;2.85;;;0.68;;
31262;SDS011;17892;52.080;9.006;2024-02-23T05:32:44;3.60;;;0.77;;
31262;SDS011;17892;52.080;9.006;2024-02-23T05:35:11;3.45;;;0.80;;
31262;SDS011;17892;52.080;9.006;2024-02-23T05:37:36;2.92;;;0.80;;
31262;SDS011;17892;52.080;9.006;2024-02-23T05:40:03;1.83;;;0.65;;
31262;SDS011;17892;52.080;9.006;2024-02-23T05:42:32;2.40;;;0.80;;
31262;SDS011;17892;52.080;9.006;2024-02-23T05:44:58;1.92;;;0.90;;
31262;SDS011;17892;52.080;9.006;2024-02-23T05:47:24;2.75;;;0.85;;
31262;SDS011;17892;52.080;9.006;2024-02-23T05:49:50;2.25;;;0.85;;
31262;SDS011;17892;52.080;9.006;2024-02-23T05:52:16;2.30;;;0.88;;
31262;SDS011;17892;52.080;9.006;2024-02-23T05:54:41;2.67;;;0.77;;
31262;SDS011;17892;52.080;9.006;2024-02-23T05:57:07;2.30;;;0.80;;
31262;SDS011;17892;52.080;9.006;2024-02-23T05:59:33;5.47;;;1.20;;
31262;SDS011;17892;52.080;9.006;2024-02-23T06:01:59;3.22;;;0.80;;
31262;SDS011;17892;52.080;9.006;2024-02-23T06:04:24;4.07;;;0.70;;
31262;SDS011;17892;52.080;9.006;2024-02-23T06:06:50;2.13;;;0.70;;
31262;SDS011;17892;52.080;9.006;2024-02-23T06:09:16;3.97;;;0.70;;
31262;SDS011;17892;52.080;9.006;2024-02-23T06:11:42;2.50;;;0.70;;
31262;SDS011;17892;52.080;9.006;2024-02-23T06:14:07;2.42;;;0.80;;
31262;SDS011;17892;52.080;9.006;2024-02-23T06:16:33;3.42;;;0.63;;
31262;SDS011;17892;52.080;9.006;2024-02-23T06:18:59;2.28;;;0.60;;
31262;SDS011;17892;52.080;9.006;2024-02-23T06:21:25;3.35;;;0.90;;
31262;SDS011;17892;52.080;9.006;2024-02-23T06:23:51;3.22;;;0.77;;
31262;SDS011;17892;52.080;9.006;2024-02-23T06:26:17;2.13;;;0.50;;
31262;SDS011;17892;52.080;9.006;2024-02-23T06:28:43;4.00;;;0.70;;
31262;SDS011;17892;52.080;9.006;2024-02-23T06:31:09;2.33;;;0.60;;
31262;SDS011;17892;52.080;9.006;2024-02-23T06:33:34;1.92;;;0.50;;
31262;SDS011;17892;52.080;9.006;2024-02-23T06:36:01;2.70;;;0.60;;
31262;SDS011;17892;52.080;9.006;2024-02-23T06:38:28;1.60;;;0.52;;
31262;SDS011;17892;52.080;9.006;2024-02-23T06:40:54;2.88;;;0.45;;
31262;SDS011;17892;52.080;9.006;2024-02-23T06:43:21;2.47;;;0.60;;
31262;SDS011;17892;52.080;9.006;2024-02-23T06:45:46;0.85;;;0.40;;
31262;SDS011;17892;52.080;9.006;2024-02-23T06:48:12;1.75;;;0.30;;
31262;SDS011;17892;52.080;9.006;2024-02-23T06:50:38;1.02;;;0.43;;
31262;SDS011;17892;52.080;9.006;2024-02-23T06:53:03;2.35;;;0.30;;
31262;SDS011;17892;52.080;9.006;2024-02-23T06:55:31;1.50;;;0.52;;
31262;SDS011;17892;52.080;9.006;2024-02-23T06:57:59;2.13;;;0.40;;
31262;SDS011;17892;52.080;9.006;2024-02-23T07:00:24;2.17;;;0.30;;
31262;SDS011;17892;52.080;9.006;2024-02-23T07:02:50;4.13;;;0.95;;
31262;SDS011;17892;52.080;9.006;2024-02-23T07:05:16;2.33;;;0.55;;
31262;SDS011;17892;52.080;9.006;2024-02-23T07:07:42;2.72;;;0.40;;
31262;SDS011;17892;52.080;9.006;2024-02-23T07:10:07;1.05;;;0.28;;
31262;SDS011;17892;52.080;9.006;2024-02-23T07:12:34;1.95;;;0.30;;
31262;SDS011;17892;52.080;9.006;2024-02-23T07:15:00;0.98;;;0.40;;
31262;SDS011;17892;52.080;9.006;2024-02-23T07:17:26;1.63;;;0.30;;
31262;SDS011;17892;52.080;9.006;2024-02-23T07:19:53;1.38;;;0.40;;
31262;SDS011;17892;52.080;9.006;2024-02-23T07:22:18;1.38;;;0.30;;
31262;SDS011;17892;52.080;9.006;2024-02-23T07:24:45;0.47;;;0.20;;
31262;SDS011;17892;52.080;9.006;2024-02-23T07:27:11;1.25;;;0.45;;
31262;SDS011;17892;52.080;9.006;2024-02-23T07:29:37;1.33;;;0.30;;
31262;SDS011;17892;52.080;9.006;2024-02-23T07:32:03;1.23;;;0.30;;
31262;SDS011;17892;52.080;9.006;2024-02-23T07:34:30;1.35;;;0.30;;
31262;SDS011;17892;52.080;9.006;2024-02-23T07:36:56;0.77;;;0.20;;
31262;SDS011;17892;52.080;9.006;2024-02-23T07:39:22;2.97;;;0.50;;
31262;SDS011;17892;52.080;9.006;2024-02-23T07:41:48;1.08;;;0.32;;
31262;SDS011;17892;52.080;9.006;2024-02-23T07:44:13;2.08;;;0.40;;
31262;SDS011;17892;52.080;9.006;2024-02-23T07:46:39;2.03;;;0.30;;
31262;SDS011;17892;52.080;9.006;2024-02-23T07:49:05;3.05;;;0.40;;
31262;SDS011;17892;52.080;9.006;2024-02-23T07:51:31;1.02;;;0.30;;
31262;SDS011;17892;52.080;9.006;2024-02-23T07:53:57;0.40;;;0.10;;
31262;SDS011;17892;52.080;9.006;2024-02-23T07:56:23;1.50;;;0.30;;
31262;SDS011;17892;52.080;9.006;2024-02-23T07:58:48;2.85;;;0.30;;
31262;SDS011;17892;52.080;9.006;2024-02-23T08:01:14;2.90;;;0.40;;
31262;SDS011;17892;52.080;9.006;2024-02-23T08:03:40;2.35;;;0.30;;
31262;SDS011;17892;52.080;9.006;2024-02-23T08:06:06;1.38;;;0.30;;
31262;SDS011;17892;52.080;9.006;2024-02-23T08:08:31;0.63;;;0.17;;
31262;SDS011;17892;52.080;9.006;2024-02-23T08:11:00;1.17;;;0.35;;
31262;SDS011;17892;52.080;9.006;2024-02-23T08:13:29;1.38;;;0.28;;
31262;SDS011;17892;52.080;9.006;2024-02-23T08:15:55;2.53;;;0.43;;
31262;SDS011;17892;52.080;9.006;2024-02-23T08:18:22;2.25;;;0.50;;
31262;SDS011;17892;52.080;9.006;2024-02-23T08:20:48;1.60;;;0.30;;
31262;SDS011;17892;52.080;9.006;2024-02-23T08:23:14;1.65;;;0.35;;
31262;SDS011;17892;52.080;9.006;2024-02-23T08:25:39;1.60;;;0.25;;
31262;SDS011;17892;52.080;9.006;2024-02-23T08:28:05;1.77;;;0.30;;
31262;SDS011;17892;52.080;9.006;2024-02-23T08:30:31;1.25;;;0.22;;
31262;SDS011;17892;52.080;9.006;2024-02-23T08:32:57;1.20;;;0.20;;
31262;SDS011;17892;52.080;9.006;2024-02-23T08:35:23;1.92;;;0.38;;
31262;SDS011;17892;52.080;9.006;2024-02-23T08:37:49;1.08;;;0.17;;
31262;SDS011;17892;52.080;9.006;2024-02-23T08:40:15;2.10;;;0.38;;
31262;SDS011;17892;52.080;9.006;2024-02-23T08:42:40;3.40;;;0.30;;
31262;SDS011;17892;52.080;9.006;2024-02-23T08:45:07;2.22;;;0.30;;
31262;SDS011;17892;52.080;9.006;2024-02-23T08:47:34;2.25;;;0.55;;
31262;SDS011;17892;52.080;9.006;2024-02-23T08:50:01;1.35;;;0.20;;
31262;SDS011;17892;52.080;9.006;2024-02-23T08:52:27;1.63;;;0.30;;
31262;SDS011;17892;52.080;9.006;2024-02-23T08:54:53;1.45;;;0.43;;
31262;SDS011;17892;52.080;9.006;2024-02-23T08:57:19;3.47;;;0.30;;
31262;SDS011;17892;52.080;9.006;2024-02-23T08:59:45;1.98;;;0.20;;
31262;SDS011;17892;52.080;9.006;2024-02-23T09:02:12;1.90;;;0.30;;
31262;SDS011;17892;52.080;9.006;2024-02-23T09:04:37;1.15;;;0.20;;
31262;SDS011;17892;52.080;9.006;2024-02-23T09:07:03;1.25;;;0.20;;
31262;SDS011;17892;52.080;9.006;2024-02-23T09:09:29;0.73;;;0.28;;
31262;SDS011;17892;52.080;9.006;2024-02-23T09:11:55;1.40;;;0.30;;
31262;SDS011;17892;52.080;9.006;2024-02-23T09:14:20;1.27;;;0.30;;
31262;SDS011;17892;52.080;9.006;2024-02-23T09:16:46;1.98;;;0.22;;
31262;SDS011;17892;52.080;9.006;2024-02-23T09:19:15;1.77;;;0.20;;
31262;SDS011;17892;52.080;9.006;2024-02-23T09:21:41;3.33;;;0.25;;
31262;SDS011;17892;52.080;9.006;2024-02-23T09:24:07;0.60;;;0.15;;
31262;SDS011;17892;52.080;9.006;2024-02-23T09:26:33;0.85;;;0.20;;
31262;SDS011;17892;52.080;9.006;2024-02-23T09:28:58;2.38;;;0.30;;
31262;SDS011;17892;52.080;9.006;2024-02-23T09:31:24;1.88;;;0.25;;
31262;SDS011;17892;52.080;9.006;2024-02-23T09:33:51;1.98;;;0.40;;
31262;SDS011;17892;52.080;9.006;2024-02-23T09:36:17;2.75;;;0.30;;
31262;SDS011;17892;52.080;9.006;2024-02-23T09:38:42;1.85;;;0.32;;
31262;SDS011;17892;52.080;9.006;2024-02-23T09:41:11;1.38;;;0.20;;
31262;SDS011;17892;52.080;9.006;2024-02-23T09:43:44;1.92;;;0.22;;
31262;SDS011;17892;52.080;9.006;2024-02-23T09:46:13;1.27;;;0.17;;
31262;SDS011;17892;52.080;9.006;2024-02-23T09:48:40;1.88;;;0.20;;
31262;SDS011;17892;52.080;9.006;2024-02-23T09:51:07;2.30;;;0.20;;
31262;SDS011;17892;52.080;9.006;2024-02-23T09:53:36;1.55;;;0.30;;
31262;SDS011;17892;52.080;9.006;2024-02-23T09:56:03;1.42;;;0.30;;
31262;SDS011;17892;52.080;9.006;2024-02-23T09:58:34;0.82;;;0.30;;
31262;SDS011;17892;52.080;9.006;2024-02-23T10:01:02;0.68;;;0.20;;
31262;SDS011;17892;52.080;9.006;2024-02-23T10:03:29;1.40;;;0.30;;
31262;SDS011;17892;52.080;9.006;2024-02-23T10:05:56;2.20;;;0.10;;
31262;SDS011;17892;52.080;9.006;2024-02-23T10:08:26;1.23;;;0.30;;
31262;SDS011;17892;52.080;9.006;2024-02-23T10:10:54;2.72;;;0.32;;
31262;SDS011;17892;52.080;9.006;2024-02-23T10:13:20;2.17;;;0.30;;
31262;SDS011;17892;52.080;9.006;2024-02-23T10:15:51;1.63;;;0.30;;
31262;SDS011;17892;52.080;9.006;2024-02-23T10:18:18;1.92;;;0.30;;
31262;SDS011;17892;52.080;9.006;2024-02-23T10:20:44;1.13;;;0.40;;
31262;SDS011;17892;52.080;9.006;2024-02-23T10:23:11;0.95;;;0.20;;
31262;SDS011;17892;52.080;9.006;2024-02-23T10:25:37;4.20;;;0.95;;
31262;SDS011;17892;52.080;9.006;2024-02-23T10:28:03;1.38;;;0.30;;
31262;SDS011;17892;52.080;9.006;2024-02-23T10:32:58;0.93;;;0.20;;
31262;SDS011;17892;52.080;9.006;2024-02-23T10:35:24;0.68;;;0.20;;
31262;SDS011;17892;52.080;9.006;2024-02-23T10:37:52;2.28;;;0.20;;
31262;SDS011;17892;52.080;9.006;2024-02-23T10:40:20;1.55;;;0.20;;
31262;SDS011;17892;52.080;9.006;2024-02-23T10:42:48;2.33;;;0.32;;
31262;SDS011;17892;52.080;9.006;2024-02-23T10:45:18;1.98;;;0.20;;
31262;SDS011;17892;52.080;9.006;2024-02-23T10:47:47;2.03;;;0.20;;
31262;SDS011;17892;52.080;9.006;2024-02-23T10:50:14;1.13;;;0.35;;
31262;SDS011;17892;52.080;9.006;2024-02-23T10:52:41;2.17;;;0.40;;
31262;SDS011;17892;52.080;9.006;2024-02-23T10:55:10;1.30;;;0.30;;
31262;SDS011;17892;52.080;9.006;2024-02-23T10:57:37;1.45;;;0.20;;
31262;SDS011;17892;52.080;9.006;2024-02-23T11:00:04;1.90;;;0.63;;
31262;SDS011;17892;52.080;9.006;2024-02-23T11:02:34;2.08;;;0.30;;
31262;SDS011;17892;52.080;9.006;2024-02-23T11:05:09;1.52;;;0.30;;
31262;SDS011;17892;52.080;9.006;2024-02-23T11:07:40;1.45;;;0.43;;
31262;SDS011;17892;52.080;9.006;2024-02-23T11:10:06;1.08;;;0.25;;
31262;SDS011;17892;52.080;9.006;2024-02-23T11:12:34;0.90;;;0.30;;
31262;SDS011;17892;52.080;9.006;2024-02-23T11:15:00;1.27;;;0.30;;
31262;SDS011;17892;52.080;9.006;2024-02-23T11:17:27;0.60;;;0.17;;
31262;SDS011;17892;52.080;9.006;2024-02-23T11:19:55;2.20;;;0.45;;
31262;SDS011;17892;52.080;9.006;2024-02-23T11:22:25;1.48;;;0.40;;
31262;SDS011;17892;52.080;9.006;2024-02-23T11:24:52;1.90;;;0.57;;
31262;SDS011;17892;52.080;9.006;2024-02-23T11:27:18;2.00;;;0.50;;
31262;SDS011;17892;52.080;9.006;2024-02-23T11:29:45;2.00;;;0.47;;
31262;SDS011;17892;52.080;9.006;2024-02-23T11:32:14;1.95;;;0.50;;
31262;SDS011;17892;52.080;9.006;2024-02-23T11:34:41;1.10;;;0.30;;
31262;SDS011;17892;52.080;9.006;2024-02-23T11:37:09;2.83;;;0.50;;
31262;SDS011;17892;52.080;9.006;2024-02-23T11:39:38;2.80;;;0.70;;
31262;SDS011;17892;52.080;9.006;2024-02-23T11:42:05;1.83;;;0.43;;
31262;SDS011;17892;52.080;9.006;2024-02-23T11:44:31;1.23;;;0.32;;
31262;SDS011;17892;52.080;9.006;2024-02-23T11:46:57;0.25;;;0.10;;
31262;SDS011;17892;52.080;9.006;2024-02-23T11:49:29;1.50;;;0.30;;
31262;SDS011;17892;52.080;9.006;2024-02-23T11:51:56;3.83;;;0.45;;
31262;SDS011;17892;52.080;9.006;2024-02-23T11:54:22;2.40;;;0.30;;
31262;SDS011;17892;52.080;9.006;2024-02-23T11:56:48;2.08;;;0.47;;
31262;SDS011;17892;52.080;9.006;2024-02-23T11:59:15;0.80;;;0.20;;
31262;SDS011;17892;52.080;9.006;2024-02-23T12:01:41;1.65;;;0.40;;
31262;SDS011;17892;52.080;9.006;2024-02-23T12:04:07;2.45;;;0.60;;
31262;SDS011;17892;52.080;9.006;2024-02-23T12:06:33;1.63;;;0.30;;
31262;SDS011;17892;52.080;9.006;2024-02-23T12:08:59;2.83;;;0.20;;
31262;SDS011;17892;52.080;9.006;2024-02-23T12:11:26;1.73;;;0.35;;
31262;SDS011;17892;52.080;9.006;2024-02-23T12:13:52;1.85;;;0.40;;
31262;SDS011;17892;52.080;9.006;2024-02-23T12:16:18;1.10;;;0.50;;
31262;SDS011;17892;52.080;9.006;2024-02-23T12:18:46;1.23;;;0.20;;
31262;SDS011;17892;52.080;9.006;2024-02-23T12:21:20;2.30;;;0.35;;
31262;SDS011;17892;52.080;9.006;2024-02-23T12:23:46;3.15;;;0.40;;
31262;SDS011;17892;52.080;9.006;2024-02-23T12:26:15;3.20;;;0.30;;
31262;SDS011;17892;52.080;9.006;2024-02-23T12:28:43;1.23;;;0.40;;
31262;SDS011;17892;52.080;9.006;2024-02-23T12:31:09;2.35;;;0.30;;
31262;SDS011;17892;52.080;9.006;2024-02-23T12:33:35;1.48;;;0.17;;
31262;SDS011;17892;52.080;9.006;2024-02-23T12:36:03;1.23;;;0.22;;
31262;SDS011;17892;52.080;9.006;2024-02-23T12:38:30;1.55;;;0.40;;
31262;SDS011;17892;52.080;9.006;2024-02-23T12:40:56;1.13;;;0.20;;
31262;SDS011;17892;52.080;9.006;2024-02-23T12:43:22;1.20;;;0.20;;
31262;SDS011;17892;52.080;9.006;2024-02-23T12:45:52;0.88;;;0.20;;
31262;SDS011;17892;52.080;9.006;2024-02-23T12:48:18;1.55;;;0.22;;
31262;SDS011;17892;52.080;9.006;2024-02-23T12:50:45;1.02;;;0.20;;
31262;SDS011;17892;52.080;9.006;2024-02-23T12:53:18;1.63;;;0.20;;
31262;SDS011;17892;52.080;9.006;2024-02-23T12:56:03;1.35;;;0.17;;
31262;SDS011;17892;52.080;9.006;2024-02-23T12:58:31;1.25;;;0.25;;
31262;SDS011;17892;52.080;9.006;2024-02-23T13:00:57;2.33;;;0.30;;
31262;SDS011;17892;52.080;9.006;2024-02-23T13:03:23;0.90;;;0.22;;
31262;SDS011;17892;52.080;9.006;2024-02-23T13:05:55;0.93;;;0.20;;
31262;SDS011;17892;52.080;9.006;2024-02-23T13:08:22;2.30;;;0.50;;
31262;SDS011;17892;52.080;9.006;2024-02-23T13:10:49;1.60;;;0.25;;
31262;SDS011;17892;52.080;9.006;2024-02-23T13:13:15;1.02;;;0.20;;
31262;SDS011;17892;52.080;9.006;2024-02-23T13:15:42;1.40;;;0.30;;
31262;SDS011;17892;52.080;9.006;2024-02-23T13:18:08;1.35;;;0.20;;
31262;SDS011;17892;52.080;9.006;2024-02-23T13:20:35;0.73;;;0.13;;
31262;SDS011;17892;52.080;9.006;2024-02-23T13:23:02;0.93;;;0.20;;
31262;SDS011;17892;52.080;9.006;2024-02-23T13:25:27;2.10;;;0.32;;
31262;SDS011;17892;52.080;9.006;2024-02-23T13:27:53;1.38;;;0.28;;
31262;SDS011;17892;52.080;9.006;2024-02-23T13:30:19;1.05;;;0.10;;
31262;SDS011;17892;52.080;9.006;2024-02-23T13:32:45;2.25;;;0.30;;
31262;SDS011;17892;52.080;9.006;2024-02-23T13:35:12;1.92;;;0.40;;
31262;SDS011;17892;52.080;9.006;2024-02-23T13:37:39;1.02;;;0.30;;
31262;SDS011;17892;52.080;9.006;2024-02-23T13:40:07;2.05;;;0.30;;
31262;SDS011;17892;52.080;9.006;2024-02-23T13:42:34;0.95;;;0.20;;
31262;SDS011;17892;52.080;9.006;2024-02-23T13:45:00;0.95;;;0.10;;
31262;SDS011;17892;52.080;9.006;2024-02-23T13:47:26;1.30;;;0.20;;
31262;SDS011;17892;52.080;9.006;2024-02-23T13:49:52;0.82;;;0.15;;
31262;SDS011;17892;52.080;9.006;2024-02-23T13:52:17;1.20;;;0.60;;
31262;SDS011;17892;52.080;9.006;2024-02-23T13:54:43;0.93;;;0.30;;
31262;SDS011;17892;52.080;9.006;2024-02-23T13:57:09;2.13;;;0.20;;
31262;SDS011;17892;52.080;9.006;2024-02-23T13:59:34;0.93;;;0.20;;
31262;SDS011;17892;52.080;9.006;2024-02-23T14:02:00;2.00;;;0.30;;
31262;SDS011;17892;52.080;9.006;2024-02-23T14:04:26;0.80;;;0.17;;
31262;SDS011;17892;52.080;9.006;2024-02-23T14:06:51;0.38;;;0.17;;
31262;SDS011;17892;52.080;9.006;2024-02-23T14:09:17;1.23;;;0.10;;
31262;SDS011;17892;52.080;9.006;2024-02-23T14:11:43;0.30;;;0.10;;
31262;SDS011;17892;52.080;9.006;2024-02-23T14:14:10;3.78;;;0.30;;
31262;SDS011;17892;52.080;9.006;2024-02-23T14:16:35;0.60;;;0.20;;
31262;SDS011;17892;52.080;9.006;2024-02-23T14:19:01;1.20;;;0.13;;
31262;SDS011;17892;52.080;9.006;2024-02-23T14:21:27;1.35;;;0.20;;
31262;SDS011;17892;52.080;9.006;2024-02-23T14:23:53;1.33;;;0.13;;
31262;SDS011;17892;52.080;9.006;2024-02-23T14:26:18;1.10;;;0.20;;
31262;SDS011;17892;52.080;9.006;2024-02-23T14:28:44;0.95;;;0.20;;
31262;SDS011;17892;52.080;9.006;2024-02-23T14:31:09;1.95;;;0.30;;
31262;SDS011;17892;52.080;9.006;2024-02-23T14:33:35;0.82;;;0.20;;
31262;SDS011;17892;52.080;9.006;2024-02-23T14:36:01;2.05;;;0.30;;
31262;SDS011;17892;52.080;9.006;2024-02-23T14:38:26;0.95;;;0.30;;
31262;SDS011;17892;52.080;9.006;2024-02-23T14:40:52;1.35;;;0.75;;
31262;SDS011;17892;52.080;9.006;2024-02-23T14:43:18;0.63;;;0.10;;
31262;SDS011;17892;52.080;9.006;2024-02-23T14:45:43;1.10;;;0.30;;
31262;SDS011;17892;52.080;9.006;2024-02-23T14:48:09;2.38;;;0.30;;
31262;SDS011;17892;52.080;9.006;2024-02-23T14:50:35;1.48;;;0.20;;